Skip Navigation Links Skip Navigation Links

Current Weather

Brookneal/Campbell County, Brookneal, Va.

For information only: do not use for flight planning or navigation.
Latest weather
Observation time Tuesday, June 25, 2019 1:55 PM EDT
Local time Tuesday, June 25, 2019 2:10 PM EDT
Flight conditions Visual Meteorological Conditions
Winds
Wind direction West-Northwest (290°)
Wind speed 5 mph
Visibility 10 mi.
Sky condition
Ceiling unlimited
Sky clear
Temperature 86°F
Dewpoint 69°F
Altimeter 29.97 in.Hg
Derived measurements
Relative humidity 58%
Heat index 90°F
Density altitude 2564 ft.
Climate data
Remarks
Fully automated report.
Automated weather observing station without precipitation discriminator.
METAR K0V4 251755Z AUTO 29004KT 10SM CLR 30/21 A2997 RMK AO1 T02980205 10298 20226

Settings

Location code

InnerDrive.Weather 4.0.6770.0 Release CLR 4.0.30319.42000
Copyright ©2018 Inner Drive Technology. All rights reserved. Portions Copyright ©1986-2018 David Braverman.

Find weather

Site navigation


Skip Navigation Links

Place info

Page info

PayPal - The safer, easier way to pay online!

Return home.

Copyright ©2019 Inner Drive Technology. Purveyors of fine, hand-crafted computer software. Page printed 2019-06-25T18:10:13 UTC.